createdAt,value
2016-09-15T00:00:25.041Z,0
2016-09-15T00:01:24.730Z,0
2016-09-15T00:02:25.002Z,0
2016-09-15T00:03:24.719Z,0
2016-09-15T00:04:25.686Z,0
2016-09-15T00:05:25.430Z,0
2016-09-15T00:06:25.540Z,0
2016-09-15T00:07:25.751Z,0
2016-09-15T00:08:25.155Z,0
2016-09-15T00:09:24.856Z,0
2016-09-15T00:10:24.900Z,0
2016-09-15T00:11:25.263Z,0
2016-09-15T00:12:24.937Z,0
2016-09-15T00:13:25.291Z,0
2016-09-15T00:14:25.930Z,0
2016-09-15T00:15:25.327Z,0
2016-09-15T00:16:25.662Z,0
2016-09-15T00:17:25.072Z,0
2016-09-15T00:18:25.393Z,0
2016-09-15T00:19:25.120Z,0
2016-09-15T00:20:25.441Z,0
2016-09-15T00:21:25.476Z,0
2016-09-15T00:22:26.109Z,0
2016-09-15T00:23:25.937Z,0
2016-09-15T00:24:25.545Z,0
2016-09-15T00:25:25.871Z,0
2016-09-15T00:26:26.221Z,0
2016-09-15T00:27:25.938Z,0
2016-09-15T00:28:25.649Z,0
2016-09-15T00:29:25.660Z,0
2016-09-15T00:30:26.000Z,0
2016-09-15T00:31:26.059Z,0
2016-09-15T00:32:26.032Z,0
2016-09-15T00:33:25.749Z,0
2016-09-15T00:34:26.090Z,0
2016-09-15T00:35:25.491Z,0
2016-09-15T00:36:26.160Z,0
2016-09-15T00:37:25.546Z,0
2016-09-15T00:38:26.193Z,0
2016-09-15T00:39:25.953Z,0
2016-09-15T00:40:25.603Z,0
2016-09-15T00:41:25.951Z,0
2016-09-15T00:42:25.988Z,0
2016-09-15T00:43:25.984Z,0
2016-09-15T00:44:26.022Z,0
2016-09-15T00:45:26.070Z,0
2016-09-15T00:46:25.753Z,0
2016-09-15T00:47:26.773Z,0
2016-09-15T00:48:26.122Z,0
2016-09-15T00:49:25.840Z,0
2016-09-15T00:50:26.507Z,0
2016-09-15T00:51:25.880Z,0
2016-09-15T00:52:26.221Z,0
2016-09-15T00:53:26.232Z,0
2016-09-15T00:54:26.641Z,0
2016-09-15T00:55:26.280Z,0
2016-09-15T00:56:25.995Z,0
2016-09-15T00:57:26.644Z,0
2016-09-15T00:58:26.112Z,0
2016-09-15T00:59:26.372Z,0
2016-09-15T01:00:26.146Z,0
2016-09-15T01:01:25.802Z,0
2016-09-15T01:02:26.277Z,0
2016-09-15T01:03:26.876Z,0
2016-09-15T01:04:26.812Z,0
2016-09-15T01:05:26.524Z,0
2016-09-15T01:06:27.254Z,0
2016-09-15T01:07:27.337Z,0
2016-09-15T01:08:26.663Z,0
2016-09-15T01:09:26.634Z,0
2016-09-15T01:10:26.644Z,0
2016-09-15T01:11:26.974Z,0
2016-09-15T01:12:27.007Z,0
2016-09-15T01:13:26.508Z,0
2016-09-15T01:14:27.054Z,0
2016-09-15T01:15:26.852Z,0
2016-09-15T01:16:26.817Z,0
2016-09-15T01:17:27.125Z,0
2016-09-15T01:18:27.152Z,0
2016-09-15T01:19:26.956Z,0
2016-09-15T01:20:27.488Z,0
2016-09-15T01:21:27.575Z,0
2016-09-15T01:22:27.011Z,0
2016-09-15T01:23:26.632Z,0
2016-09-15T01:24:27.591Z,0
2016-09-15T01:25:27.314Z,0
2016-09-15T01:26:27.108Z,0
2016-09-15T01:27:27.350Z,0
2016-09-15T01:28:27.123Z,0
2016-09-15T01:29:27.126Z,0
2016-09-15T01:30:27.735Z,0
2016-09-15T01:31:26.923Z,0
2016-09-15T01:32:27.485Z,0
2016-09-15T01:33:27.234Z,0
2016-09-15T01:34:27.526Z,0
2016-09-15T01:35:27.030Z,0
2016-09-15T01:36:27.271Z,0
2016-09-15T01:37:27.901Z,0
2016-09-15T01:38:26.696Z,0
2016-09-15T01:39:27.155Z,0
2016-09-15T01:40:27.957Z,0
2016-09-15T01:41:28.114Z,0
2016-09-15T01:42:27.078Z,0
2016-09-15T01:43:27.428Z,0
2016-09-15T01:44:27.174Z,0
2016-09-15T01:45:26.853Z,0
2016-09-15T01:46:27.843Z,0
2016-09-15T01:47:27.527Z,0
2016-09-15T01:48:27.241Z,0
2016-09-15T01:49:27.865Z,0
2016-09-15T01:50:27.865Z,0
2016-09-15T01:51:27.619Z,0
2016-09-15T01:52:27.615Z,0
2016-09-15T01:53:27.789Z,0
2016-09-15T01:54:27.984Z,0
2016-09-15T01:55:28.373Z,0
2016-09-15T01:56:28.336Z,0
2016-09-15T01:57:27.434Z,0
2016-09-15T01:58:27.744Z,0
2016-09-15T01:59:27.784Z,0
2016-09-15T02:00:27.885Z,0
2016-09-15T02:01:27.883Z,0
2016-09-15T02:02:27.558Z,0
2016-09-15T02:03:28.332Z,0
2016-09-15T02:04:27.913Z,0
2016-09-15T02:05:28.242Z,0
2016-09-15T02:06:28.264Z,0
2016-09-15T02:07:28.285Z,0
2016-09-15T02:08:28.005Z,0
2016-09-15T02:09:28.313Z,0
2016-09-15T02:10:27.729Z,0
2016-09-15T02:11:28.685Z,0
2016-09-15T02:12:28.092Z,0
2016-09-15T02:13:28.431Z,0
2016-09-15T02:14:28.124Z,0
2016-09-15T02:15:28.144Z,0
2016-09-15T02:16:28.486Z,0
2016-09-15T02:17:28.920Z,0
2016-09-15T02:18:28.902Z,0
2016-09-15T02:19:28.544Z,0
2016-09-15T02:20:27.976Z,0
2016-09-15T02:21:28.304Z,0
2016-09-15T02:22:28.374Z,0
2016-09-15T02:23:28.965Z,0
2016-09-15T02:24:27.766Z,0
2016-09-15T02:25:28.746Z,0
2016-09-15T02:26:28.734Z,0
2016-09-15T02:27:27.825Z,0
2016-09-15T02:28:28.805Z,0
2016-09-15T02:29:28.504Z,0
2016-09-15T02:30:28.527Z,0
2016-09-15T02:31:27.915Z,0
2016-09-15T02:32:28.566Z,0
2016-09-15T02:33:28.263Z,0
2016-09-15T02:34:28.692Z,0
2016-09-15T02:35:28.316Z,0
2016-09-15T02:36:28.732Z,0
2016-09-15T02:37:28.764Z,0
2016-09-15T02:38:29.143Z,0
2016-09-15T02:39:28.734Z,0
2016-09-15T02:40:28.406Z,0
2016-09-15T02:41:28.763Z,0
2016-09-15T02:42:29.095Z,0
2016-09-15T02:43:28.822Z,0
2016-09-15T02:44:29.456Z,0
2016-09-15T02:45:29.164Z,0
2016-09-15T02:46:28.879Z,0
2016-09-15T02:47:29.213Z,0
2016-09-15T02:48:28.939Z,0
2016-09-15T02:49:29.245Z,0
2016-09-15T02:50:29.324Z,0
2016-09-15T02:51:29.305Z,0
2016-09-15T02:52:29.296Z,0
2016-09-15T02:53:28.716Z,0
2016-09-15T02:54:29.788Z,0
2016-09-15T02:55:29.089Z,0
2016-09-15T02:56:28.835Z,0
2016-09-15T02:57:28.816Z,0
2016-09-15T02:58:28.848Z,0
2016-09-15T02:59:29.187Z,0
2016-09-15T03:00:29.504Z,0
2016-09-15T03:01:29.238Z,0
2016-09-15T03:02:29.559Z,0
2016-09-15T03:03:29.574Z,0
2016-09-15T03:04:29.771Z,0
2016-09-15T03:05:29.647Z,0
2016-09-15T03:06:29.555Z,0
2016-09-15T03:07:29.648Z,0
2016-09-15T03:08:29.074Z,0
2016-09-15T03:09:29.810Z,0
2016-09-15T03:10:29.449Z,0
2016-09-15T03:11:29.815Z,0
2016-09-15T03:12:29.464Z,0
2016-09-15T03:13:29.583Z,0
2016-09-15T03:14:30.144Z,0
2016-09-15T03:15:30.145Z,0
2016-09-15T03:16:29.594Z,0
2016-09-15T03:17:29.588Z,0
2016-09-15T03:18:29.864Z,0
2016-09-15T03:19:29.335Z,0
2016-09-15T03:20:29.975Z,0
2016-09-15T03:21:30.151Z,0
2016-09-15T03:22:29.701Z,0
2016-09-15T03:24:02.019Z,0
2016-09-15T03:24:30.477Z,0
2016-09-15T03:25:29.503Z,0
2016-09-15T03:26:30.258Z,0
2016-09-15T03:27:30.174Z,0
2016-09-15T03:28:29.888Z,0
2016-09-15T03:29:29.889Z,0
2016-09-15T03:30:30.496Z,0
2016-09-15T03:31:30.224Z,0
2016-09-15T03:32:29.624Z,0
2016-09-15T03:33:29.941Z,0
2016-09-15T03:34:30.257Z,0
2016-09-15T03:35:29.993Z,0
2016-09-15T03:36:30.632Z,0
2016-09-15T03:37:30.444Z,0
2016-09-15T03:38:30.671Z,0
2016-09-15T03:39:30.371Z,0
2016-09-15T03:40:30.157Z,0
2016-09-15T03:41:30.067Z,0
2016-09-15T03:42:30.154Z,0
2016-09-15T03:43:30.222Z,0
2016-09-15T03:44:30.179Z,0
2016-09-15T03:45:30.523Z,0
2016-09-15T03:46:29.923Z,0
2016-09-15T03:47:30.584Z,0
2016-09-15T03:48:30.553Z,0
2016-09-15T03:49:30.064Z,0
2016-09-15T03:50:30.326Z,0
2016-09-15T03:51:31.073Z,0
2016-09-15T03:52:31.052Z,0
2016-09-15T03:53:30.093Z,0
2016-09-15T03:54:30.398Z,0
2016-09-15T03:55:30.442Z,0
2016-09-15T03:56:30.134Z,0
2016-09-15T03:57:30.175Z,0
2016-09-15T03:58:31.131Z,0
2016-09-15T03:59:30.210Z,0
2016-09-15T04:00:30.553Z,0
2016-09-15T04:01:30.260Z,0
2016-09-15T04:02:30.333Z,0
2016-09-15T04:03:30.618Z,0
2016-09-15T04:04:30.953Z,0
2016-09-15T04:05:30.340Z,0
2016-09-15T04:06:31.308Z,0
2016-09-15T04:07:30.752Z,0
2016-09-15T04:08:31.126Z,0
2016-09-15T04:09:30.821Z,0
2016-09-15T04:10:31.069Z,0
2016-09-15T04:11:30.793Z,0
2016-09-15T04:12:31.203Z,0
2016-09-15T04:13:30.841Z,0
2016-09-15T04:14:30.863Z,0
2016-09-15T04:15:30.871Z,0
2016-09-15T04:16:30.911Z,0
2016-09-15T04:17:30.665Z,0
2016-09-15T04:18:31.283Z,0
2016-09-15T04:19:30.965Z,0
2016-09-15T04:20:31.343Z,0
2016-09-15T04:21:31.052Z,0
2016-09-15T04:22:30.785Z,0
2016-09-15T04:23:31.403Z,0
2016-09-15T04:24:30.873Z,0
2016-09-15T04:25:31.111Z,0
2016-09-15T04:26:31.152Z,0
2016-09-15T04:27:31.451Z,0
2016-09-15T04:28:31.272Z,0
2016-09-15T04:29:31.206Z,0
2016-09-15T04:30:30.600Z,0
2016-09-15T04:31:31.235Z,0
2016-09-15T04:32:30.953Z,0
2016-09-15T04:33:30.965Z,0
2016-09-15T04:34:31.300Z,0
2016-09-15T04:35:31.016Z,0
2016-09-15T04:36:31.042Z,0
2016-09-15T04:37:31.775Z,0
2016-09-15T04:38:32.067Z,0
2016-09-15T04:39:31.791Z,0
2016-09-15T04:40:31.509Z,0
2016-09-15T04:41:31.486Z,0
2016-09-15T04:42:31.497Z,0
2016-09-15T04:43:31.492Z,0
2016-09-15T04:44:31.822Z,0
2016-09-15T04:45:31.553Z,0
2016-09-15T04:46:31.886Z,0
2016-09-15T04:47:31.897Z,0
2016-09-15T04:48:31.609Z,5
2016-09-15T04:49:31.079Z,5
2016-09-15T04:50:32.031Z,5
2016-09-15T04:51:31.383Z,5
2016-09-15T04:52:32.026Z,5
2016-09-15T04:53:31.430Z,5
2016-09-15T04:54:31.441Z,5
2016-09-15T04:55:32.076Z,10
2016-09-15T04:56:31.792Z,10
2016-09-15T04:57:32.194Z,10
2016-09-15T04:58:32.033Z,10
2016-09-15T04:59:32.483Z,10
2016-09-15T05:00:31.874Z,15
2016-09-15T05:01:31.641Z,15
2016-09-15T05:02:32.574Z,15
2016-09-15T05:03:31.951Z,20
2016-09-15T05:04:31.672Z,20
2016-09-15T05:05:32.000Z,20
2016-09-15T05:06:32.392Z,20
2016-09-15T05:07:32.045Z,25
2016-09-15T05:08:32.367Z,25
2016-09-15T05:09:32.085Z,30
2016-09-15T05:10:32.112Z,30
2016-09-15T05:11:32.491Z,30
2016-09-15T05:12:32.464Z,35
2016-09-15T05:13:32.205Z,35
2016-09-15T05:14:32.202Z,40
2016-09-15T05:15:32.211Z,40
2016-09-15T05:16:32.229Z,40
2016-09-15T05:17:32.611Z,45
2016-09-15T05:18:32.604Z,45
2016-09-15T05:19:32.589Z,50
2016-09-15T05:20:32.652Z,50
2016-09-15T05:21:32.101Z,55
2016-09-15T05:22:33.123Z,55
2016-09-15T05:23:32.700Z,60
2016-09-15T05:24:32.417Z,60
2016-09-15T05:25:32.439Z,60
2016-09-15T05:26:32.790Z,65
2016-09-15T05:27:32.271Z,65
2016-09-15T05:28:32.803Z,70
2016-09-15T05:29:32.740Z,70
2016-09-15T05:30:32.543Z,75
2016-09-15T05:31:32.728Z,75
2016-09-15T05:32:33.048Z,80
2016-09-15T05:33:32.310Z,85
2016-09-15T05:34:32.642Z,85
2016-09-15T05:35:33.080Z,90
2016-09-15T05:36:32.982Z,90
2016-09-15T05:37:32.411Z,95
2016-09-15T05:38:32.791Z,95
2016-09-15T05:39:32.802Z,100
2016-09-15T05:40:33.602Z,100
2016-09-15T05:41:33.270Z,105
2016-09-15T05:42:32.923Z,105
2016-09-15T05:43:33.253Z,105
2016-09-15T05:44:33.572Z,110
2016-09-15T05:45:33.222Z,110
2016-09-15T05:46:33.222Z,110
2016-09-15T05:47:32.873Z,115
2016-09-15T05:48:32.840Z,125
2016-09-15T05:49:33.369Z,125
2016-09-15T05:50:33.163Z,135
2016-09-15T05:51:33.652Z,140
2016-09-15T05:52:33.274Z,145
2016-09-15T05:53:33.018Z,155
2016-09-15T05:54:33.694Z,160
2016-09-15T05:55:33.712Z,185
2016-09-15T05:56:33.479Z,205
2016-09-15T05:57:33.432Z,245
2016-09-15T05:58:33.209Z,265
2016-09-15T05:59:33.376Z,275
2016-09-15T06:00:32.921Z,290
2016-09-15T06:01:33.419Z,295
2016-09-15T06:02:33.274Z,305
2016-09-15T06:03:33.343Z,315
2016-09-15T06:04:33.641Z,320
2016-09-15T06:05:33.643Z,330
2016-09-15T06:06:33.673Z,340
2016-09-15T06:07:33.392Z,350
2016-09-15T06:08:33.083Z,360
2016-09-15T06:09:33.855Z,370
2016-09-15T06:10:34.143Z,385
2016-09-15T06:11:33.565Z,390
2016-09-15T06:12:33.574Z,390
2016-09-15T06:13:33.558Z,400
2016-09-15T06:14:33.261Z,400
2016-09-15T06:15:33.912Z,405
2016-09-15T06:16:34.069Z,405
2016-09-15T06:17:33.620Z,415
2016-09-15T06:18:33.669Z,415
2016-09-15T06:19:33.374Z,410
2016-09-15T06:20:34.159Z,410
2016-09-15T06:21:34.044Z,425
2016-09-15T06:22:33.783Z,430
2016-09-15T06:23:33.801Z,440
2016-09-15T06:24:34.190Z,440
2016-09-15T06:25:33.841Z,435
2016-09-15T06:26:34.503Z,445
2016-09-15T06:27:33.601Z,455
2016-09-15T06:28:34.252Z,465
2016-09-15T06:29:33.941Z,480
2016-09-15T06:30:33.981Z,495
2016-09-15T06:31:34.012Z,500
2016-09-15T06:32:34.406Z,510
2016-09-15T06:33:33.784Z,520
2016-09-15T06:34:34.139Z,525
2016-09-15T06:35:34.182Z,530
2016-09-15T06:36:33.843Z,535
2016-09-15T06:37:34.179Z,550
2016-09-15T06:38:34.821Z,555
2016-09-15T06:39:34.583Z,560
2016-09-15T06:40:34.243Z,575
2016-09-15T06:41:34.271Z,570
2016-09-15T06:42:34.705Z,570
2016-09-15T06:43:35.049Z,570
2016-09-15T06:44:34.360Z,580
2016-09-15T06:45:34.378Z,585
2016-09-15T06:46:34.723Z,590
2016-09-15T06:47:34.771Z,600
2016-09-15T06:48:34.806Z,595
2016-09-15T06:49:34.869Z,600
2016-09-15T06:50:35.118Z,600
2016-09-15T06:51:35.209Z,615
2016-09-15T06:52:34.559Z,600
2016-09-15T06:53:35.009Z,605
2016-09-15T06:54:34.617Z,615
2016-09-15T06:55:34.657Z,625
2016-09-15T06:56:35.018Z,650
2016-09-15T06:57:34.751Z,655
2016-09-15T06:58:34.890Z,665
2016-09-15T06:59:35.384Z,695
2016-09-15T07:00:34.169Z,700
2016-09-15T07:01:34.536Z,695
2016-09-15T07:02:34.860Z,695
2016-09-15T07:03:34.878Z,690
2016-09-15T07:04:34.899Z,695
2016-09-15T07:05:35.270Z,705
2016-09-15T07:06:34.332Z,705
2016-09-15T07:07:35.001Z,705
2016-09-15T07:08:35.339Z,720
2016-09-15T07:09:35.358Z,730
2016-09-15T07:10:35.149Z,760
2016-09-15T07:11:35.708Z,750
2016-09-15T07:12:35.441Z,735
2016-09-15T07:13:34.517Z,740
2016-09-15T07:14:34.885Z,755
2016-09-15T07:15:35.550Z,775
2016-09-15T07:16:35.010Z,765
2016-09-15T07:17:35.028Z,760
2016-09-15T07:18:35.614Z,745
2016-09-15T07:19:35.021Z,755
2016-09-15T07:20:35.346Z,775
2016-09-15T07:21:35.678Z,790
2016-09-15T07:22:35.397Z,800
2016-09-15T07:23:35.772Z,810
2016-09-15T07:24:35.156Z,815
2016-09-15T07:25:35.819Z,810
2016-09-15T07:26:36.217Z,805
2016-09-15T07:27:35.909Z,790
2016-09-15T07:28:36.187Z,800
2016-09-15T07:29:35.597Z,740
2016-09-15T07:30:35.328Z,510
2016-09-15T07:31:35.356Z,365
2016-09-15T07:32:35.678Z,355
2016-09-15T07:33:36.307Z,340
2016-09-15T07:34:35.444Z,325
2016-09-15T07:35:35.903Z,325
2016-09-15T07:36:35.948Z,315
2016-09-15T07:37:35.861Z,315
2016-09-15T07:38:36.308Z,310
2016-09-15T07:39:36.273Z,310
2016-09-15T07:40:36.309Z,310
2016-09-15T07:41:35.513Z,305
2016-09-15T07:42:36.047Z,305
2016-09-15T07:43:35.989Z,305
2016-09-15T07:44:36.842Z,305
2016-09-15T07:45:36.668Z,305
2016-09-15T07:46:36.783Z,305
2016-09-15T07:47:36.412Z,305
2016-09-15T07:48:36.764Z,305
2016-09-15T07:49:36.484Z,305
2016-09-15T07:50:36.807Z,305
2016-09-15T07:51:36.517Z,305
2016-09-15T07:52:36.532Z,305
2016-09-15T07:53:36.339Z,305
2016-09-15T07:54:36.713Z,305
2016-09-15T07:55:36.001Z,305
2016-09-15T07:56:36.330Z,305
2016-09-15T07:57:36.369Z,305
2016-09-15T07:58:36.501Z,305
2016-09-15T07:59:36.090Z,305
2016-09-15T08:00:36.157Z,305
2016-09-15T08:01:36.454Z,305
2016-09-15T08:02:37.100Z,305
2016-09-15T08:03:36.516Z,305
2016-09-15T08:04:36.556Z,305
2016-09-15T08:05:36.251Z,305
2016-09-15T08:06:36.574Z,305
2016-09-15T08:07:36.918Z,305
2016-09-15T08:08:37.108Z,305
2016-09-15T08:09:36.659Z,305
2016-09-15T08:10:37.355Z,305
2016-09-15T08:11:37.356Z,305
2016-09-15T08:12:36.743Z,305
2016-09-15T08:13:36.823Z,305
2016-09-15T08:14:37.125Z,305
2016-09-15T08:15:37.159Z,305
2016-09-15T08:16:37.175Z,305
2016-09-15T08:17:37.505Z,305
2016-09-15T08:18:37.226Z,305
2016-09-15T08:19:37.230Z,300
2016-09-15T08:20:37.584Z,300
2016-09-15T08:21:36.995Z,300
2016-09-15T08:22:37.742Z,300
2016-09-15T08:23:37.333Z,300
2016-09-15T08:24:37.460Z,300
2016-09-15T08:25:37.744Z,300
2016-09-15T08:26:37.720Z,300
2016-09-15T08:27:37.147Z,305
2016-09-15T08:29:10.001Z,300
2016-09-15T08:29:37.902Z,295
2016-09-15T08:30:37.894Z,295
2016-09-15T08:31:37.236Z,300
2016-09-15T08:32:37.326Z,295
2016-09-15T08:33:37.930Z,295
2016-09-15T08:34:37.943Z,295
2016-09-15T08:35:37.495Z,295
2016-09-15T08:36:37.665Z,295
2016-09-15T08:37:37.753Z,295
2016-09-15T08:38:37.419Z,290
2016-09-15T08:39:37.582Z,290
2016-09-15T08:40:38.138Z,290
2016-09-15T08:41:37.813Z,290
2016-09-15T08:42:37.832Z,290
2016-09-15T08:43:37.553Z,290
2016-09-15T08:44:37.361Z,290
2016-09-15T08:45:37.952Z,285
2016-09-15T08:46:38.227Z,290
2016-09-15T08:47:37.411Z,285
2016-09-15T08:48:37.681Z,290
2016-09-15T08:49:37.711Z,280
2016-09-15T08:50:37.849Z,285
2016-09-15T08:51:38.161Z,280
2016-09-15T08:52:37.841Z,280
2016-09-15T08:53:37.512Z,280
2016-09-15T08:54:37.862Z,280
2016-09-15T08:55:38.168Z,275
2016-09-15T08:56:37.901Z,275
2016-09-15T08:57:38.246Z,275
2016-09-15T08:58:38.291Z,275
2016-09-15T08:59:37.954Z,270
2016-09-15T09:00:37.702Z,270
2016-09-15T09:01:37.399Z,270
2016-09-15T09:02:37.733Z,270
2016-09-15T09:03:37.803Z,270
2016-09-15T09:04:38.112Z,265
2016-09-15T09:05:38.440Z,265
2016-09-15T09:06:38.164Z,265
2016-09-15T09:07:38.803Z,265
2016-09-15T09:08:38.221Z,265
2016-09-15T09:09:38.232Z,260
2016-09-15T09:10:37.951Z,260
2016-09-15T09:11:37.966Z,260
2016-09-15T09:12:38.635Z,260
2016-09-15T09:13:38.347Z,260
2016-09-15T09:14:38.074Z,255
2016-09-15T09:15:38.489Z,255
2016-09-15T09:16:38.425Z,255
2016-09-15T09:17:38.784Z,260
2016-09-15T09:18:38.175Z,255
2016-09-15T09:19:38.867Z,255
2016-09-15T09:20:39.168Z,255
2016-09-15T09:21:38.979Z,255
2016-09-15T09:22:38.595Z,250
2016-09-15T09:23:38.330Z,250
2016-09-15T09:24:38.978Z,250
2016-09-15T09:25:38.993Z,250
2016-09-15T09:26:38.689Z,250
2016-09-15T09:27:39.043Z,250
2016-09-15T09:28:38.825Z,250
2016-09-15T09:29:38.514Z,245
2016-09-15T09:30:39.777Z,245
2016-09-15T09:31:38.694Z,245
2016-09-15T09:32:39.324Z,245
2016-09-15T09:33:39.058Z,245
2016-09-15T09:34:39.166Z,245
2016-09-15T09:35:38.723Z,240
2016-09-15T09:36:39.344Z,240
2016-09-15T09:37:39.388Z,240
2016-09-15T09:38:39.505Z,240
2016-09-15T09:39:39.404Z,240
2016-09-15T09:40:39.449Z,240
2016-09-15T09:41:39.093Z,240
2016-09-15T09:42:38.815Z,240
2016-09-15T09:43:39.149Z,240
2016-09-15T09:44:39.965Z,235
2016-09-15T09:45:39.586Z,235
2016-09-15T09:46:38.934Z,235
2016-09-15T09:47:39.575Z,235
2016-09-15T09:48:39.910Z,235
2016-09-15T09:49:39.656Z,235
2016-09-15T09:50:39.439Z,230
2016-09-15T09:51:39.384Z,230
2016-09-15T09:52:39.391Z,230
2016-09-15T09:53:39.561Z,230
2016-09-15T09:54:40.073Z,230
2016-09-15T09:55:39.592Z,230
2016-09-15T09:56:39.545Z,230
2016-09-15T09:57:39.545Z,230
2016-09-15T09:58:39.966Z,230
2016-09-15T09:59:39.447Z,230
2016-09-15T10:00:39.618Z,230
2016-09-15T10:01:40.270Z,230
2016-09-15T10:02:39.677Z,230
2016-09-15T10:03:40.024Z,230
2016-09-15T10:04:40.344Z,230
2016-09-15T10:05:40.034Z,230
2016-09-15T10:06:39.781Z,230
2016-09-15T10:07:39.527Z,225
2016-09-15T10:08:40.035Z,225
2016-09-15T10:09:40.029Z,225
2016-09-15T10:10:40.185Z,225
2016-09-15T10:11:39.628Z,225
2016-09-15T10:12:40.274Z,225
2016-09-15T10:13:40.075Z,230
2016-09-15T10:14:40.314Z,225
2016-09-15T10:15:40.130Z,230
2016-09-15T10:16:39.496Z,225
2016-09-15T10:17:40.105Z,220
2016-09-15T10:18:40.765Z,220
2016-09-15T10:19:40.155Z,220
2016-09-15T10:20:39.864Z,220
2016-09-15T10:21:40.204Z,220
2016-09-15T10:22:40.235Z,220
2016-09-15T10:23:40.874Z,220
2016-09-15T10:24:40.124Z,220
2016-09-15T10:25:40.638Z,220
2016-09-15T10:26:40.646Z,220
2016-09-15T10:27:40.566Z,220
2016-09-15T10:28:41.005Z,220
2016-09-15T10:29:40.744Z,220
2016-09-15T10:30:40.134Z,220
2016-09-15T10:31:40.465Z,220
2016-09-15T10:32:40.499Z,220
2016-09-15T10:33:40.836Z,215
2016-09-15T10:34:40.561Z,215
2016-09-15T10:35:40.566Z,215
2016-09-15T10:36:40.752Z,215
2016-09-15T10:37:40.315Z,215
2016-09-15T10:38:40.664Z,215
2016-09-15T10:39:40.373Z,215
2016-09-15T10:40:40.866Z,215
2016-09-15T10:41:40.872Z,215
2016-09-15T10:42:41.085Z,215
2016-09-15T10:43:40.813Z,215
2016-09-15T10:44:40.816Z,215
2016-09-15T10:45:41.262Z,215
2016-09-15T10:46:41.199Z,210
2016-09-15T10:47:40.923Z,215
2016-09-15T10:48:40.625Z,210
2016-09-15T10:49:41.267Z,210
2016-09-15T10:50:41.104Z,210
2016-09-15T10:51:41.149Z,210
2016-09-15T10:52:41.176Z,210
2016-09-15T10:53:41.714Z,210
2016-09-15T10:54:41.153Z,210
2016-09-15T10:55:41.450Z,210
2016-09-15T10:56:40.856Z,210
2016-09-15T10:57:41.545Z,210
2016-09-15T10:58:40.586Z,210
2016-09-15T10:59:40.998Z,205
2016-09-15T11:00:40.963Z,205
2016-09-15T11:01:41.044Z,210
2016-09-15T11:02:41.637Z,205
2016-09-15T11:03:41.337Z,205
2016-09-15T11:04:42.005Z,205
2016-09-15T11:05:41.424Z,205
2016-09-15T11:06:41.765Z,205
2016-09-15T11:07:41.275Z,205
2016-09-15T11:08:41.503Z,205
2016-09-15T11:09:41.936Z,205
2016-09-15T11:10:41.224Z,205
2016-09-15T11:11:41.637Z,205
2016-09-15T11:12:41.316Z,205
2016-09-15T11:13:41.642Z,205
2016-09-15T11:14:41.363Z,205
2016-09-15T11:15:42.015Z,205
2016-09-15T11:16:41.721Z,205
2016-09-15T11:17:41.225Z,205
2016-09-15T11:18:42.080Z,205
2016-09-15T11:19:42.214Z,205
2016-09-15T11:20:41.843Z,200
2016-09-15T11:21:41.544Z,200
2016-09-15T11:22:42.216Z,200
2016-09-15T11:23:42.218Z,200
2016-09-15T11:24:41.938Z,200
2016-09-15T11:25:41.989Z,200
2016-09-15T11:26:42.323Z,200
2016-09-15T11:27:42.925Z,200
2016-09-15T11:28:42.347Z,200
2016-09-15T11:29:42.986Z,200
2016-09-15T11:30:42.423Z,200
2016-09-15T11:31:41.563Z,200
2016-09-15T11:32:42.975Z,200
2016-09-15T11:33:41.561Z,195
2016-09-15T11:34:42.521Z,195
2016-09-15T11:35:43.194Z,195
2016-09-15T11:36:42.273Z,200
2016-09-15T11:37:42.603Z,195
2016-09-15T11:38:43.047Z,195
2016-09-15T11:39:42.345Z,195
2016-09-15T11:40:43.001Z,195
2016-09-15T11:41:43.183Z,195
2016-09-15T11:42:42.442Z,195
2016-09-15T11:43:41.850Z,195
2016-09-15T11:44:42.796Z,195
2016-09-15T11:45:42.984Z,195
2016-09-15T11:46:42.923Z,195
2016-09-15T11:47:43.626Z,195
2016-09-15T11:48:42.916Z,195
2016-09-15T11:49:43.141Z,195
2016-09-15T11:50:43.263Z,195
2016-09-15T11:51:42.833Z,195
2016-09-15T11:52:43.383Z,200
2016-09-15T11:53:42.742Z,200
2016-09-15T11:54:43.055Z,195
2016-09-15T11:55:43.216Z,195
2016-09-15T11:56:42.516Z,195
2016-09-15T11:57:43.177Z,195
2016-09-15T11:58:42.580Z,195
2016-09-15T11:59:43.230Z,195
2016-09-15T12:00:43.003Z,195
2016-09-15T12:01:43.271Z,195
2016-09-15T12:02:43.161Z,195
2016-09-15T12:03:43.336Z,195
2016-09-15T12:04:43.360Z,195
2016-09-15T12:05:43.072Z,195
2016-09-15T12:06:43.125Z,195
2016-09-15T12:07:42.832Z,195
2016-09-15T12:08:43.461Z,195
2016-09-15T12:09:43.894Z,195
2016-09-15T12:10:43.024Z,195
2016-09-15T12:11:43.131Z,190
2016-09-15T12:12:43.269Z,190
2016-09-15T12:13:43.988Z,190
2016-09-15T12:14:43.702Z,190
2016-09-15T12:15:43.671Z,190
2016-09-15T12:16:43.178Z,190
2016-09-15T12:17:43.524Z,190
2016-09-15T12:18:43.458Z,190
2016-09-15T12:19:43.798Z,190
2016-09-15T12:20:43.268Z,190
2016-09-15T12:21:43.590Z,190
2016-09-15T12:22:43.878Z,190
2016-09-15T12:23:43.278Z,190
2016-09-15T12:24:43.908Z,190
2016-09-15T12:25:44.236Z,190
2016-09-15T12:26:43.733Z,190
2016-09-15T12:27:43.703Z,190
2016-09-15T12:28:44.327Z,190
2016-09-15T12:29:43.732Z,190
2016-09-15T12:30:43.847Z,190
2016-09-15T12:31:44.177Z,185
2016-09-15T12:32:43.540Z,185
2016-09-15T12:33:44.170Z,185
2016-09-15T12:34:43.905Z,185
2016-09-15T12:35:44.246Z,185
2016-09-15T12:36:44.576Z,185
2016-09-15T12:37:43.973Z,185
2016-09-15T12:38:43.731Z,185
2016-09-15T12:39:43.704Z,185
2016-09-15T12:40:44.679Z,185
2016-09-15T12:41:44.066Z,185
2016-09-15T12:42:44.738Z,185
2016-09-15T12:43:44.454Z,185
2016-09-15T12:44:44.207Z,190
2016-09-15T12:45:44.176Z,185
2016-09-15T12:46:44.540Z,185
2016-09-15T12:47:44.571Z,185
2016-09-15T12:48:44.614Z,185
2016-09-15T12:49:44.615Z,185
2016-09-15T12:50:44.655Z,180
2016-09-15T12:51:44.352Z,180
2016-09-15T12:52:45.073Z,185
2016-09-15T12:53:44.754Z,180
2016-09-15T12:54:44.503Z,180
2016-09-15T12:55:44.476Z,180
2016-09-15T12:56:44.842Z,180
2016-09-15T12:57:44.204Z,180
2016-09-15T12:58:44.854Z,180
2016-09-15T12:59:45.015Z,180
2016-09-15T13:00:45.032Z,180
2016-09-15T13:01:44.638Z,180
2016-09-15T13:02:44.963Z,180
2016-09-15T13:03:44.372Z,180
2016-09-15T13:04:45.044Z,180
2016-09-15T13:05:45.393Z,180
2016-09-15T13:06:45.123Z,180
2016-09-15T13:07:44.806Z,180
2016-09-15T13:08:44.824Z,180
2016-09-15T13:09:44.868Z,180
2016-09-15T13:10:45.514Z,180
2016-09-15T13:11:44.934Z,180
2016-09-15T13:12:44.321Z,180
2016-09-15T13:13:45.654Z,180
2016-09-15T13:14:45.321Z,175
2016-09-15T13:15:45.646Z,175
2016-09-15T13:16:45.676Z,175
2016-09-15T13:17:45.423Z,175
2016-09-15T13:18:45.431Z,175
2016-09-15T13:19:45.792Z,175
2016-09-15T13:20:45.502Z,175
2016-09-15T13:21:46.147Z,175
2016-09-15T13:22:45.549Z,175
2016-09-15T13:23:45.349Z,175
2016-09-15T13:24:45.611Z,175
2016-09-15T13:25:45.611Z,175
2016-09-15T13:26:45.636Z,175
2016-09-15T13:27:45.501Z,175
2016-09-15T13:28:45.501Z,175
2016-09-15T13:29:45.732Z,175
2016-09-15T13:30:45.780Z,175
2016-09-15T13:31:45.632Z,175
2016-09-15T13:32:45.511Z,175
2016-09-15T13:33:45.592Z,175
2016-09-15T13:34:45.583Z,175
2016-09-15T13:35:45.654Z,175
2016-09-15T13:36:45.623Z,175
2016-09-15T13:37:46.448Z,175
2016-09-15T13:38:45.923Z,175
2016-09-15T13:39:45.543Z,175
2016-09-15T13:40:45.624Z,175
2016-09-15T13:41:45.493Z,175
2016-09-15T13:42:45.991Z,175
2016-09-15T13:43:46.350Z,175
2016-09-15T13:44:45.552Z,175
2016-09-15T13:45:46.347Z,175
2016-09-15T13:46:45.958Z,175
2016-09-15T13:47:46.347Z,175
2016-09-15T13:48:46.284Z,175
2016-09-15T13:49:45.755Z,175
2016-09-15T13:50:46.354Z,175
2016-09-15T13:51:46.365Z,175
2016-09-15T13:52:46.086Z,175
2016-09-15T13:53:46.094Z,175
2016-09-15T13:54:46.126Z,175
2016-09-15T13:55:46.147Z,175
2016-09-15T13:56:46.487Z,175
2016-09-15T13:57:46.526Z,175
2016-09-15T13:58:46.260Z,175
2016-09-15T13:59:46.124Z,175
2016-09-15T14:00:46.055Z,175
2016-09-15T14:01:45.895Z,175
2016-09-15T14:02:46.343Z,175
2016-09-15T14:03:46.695Z,170
2016-09-15T14:04:46.447Z,170
2016-09-15T14:05:46.449Z,170
2016-09-15T14:06:47.126Z,170
2016-09-15T14:07:46.817Z,170